Time;durP1;ratioP1;P1;durP2;ratioP2;P2;SDS_P1;SDS_P2;PMS_P1;PMS_P2;Temp;Humidity;BMP_temperature;BMP_pressure;BME280_temperature;BME280_humidity;BME280_pressure;Samples;Min_cycle;Max_cycle;Signal;HPM_P1;HPM_P2
2023/09/06 00:01:16;;;;;;;9.30;7.70;;;15.90;99.90;;;;;;4971100;28;21042;-65
2023/09/06 00:03:41;;;;;;;8.23;7.53;;;15.90;99.90;;;;;;4972174;28;20688;-65
2023/09/06 00:06:09;;;;;;;10.13;8.10;;;15.90;99.90;;;;;;4971454;28;20443;-65
2023/09/06 00:08:34;;;;;;;8.03;7.17;;;15.80;99.90;;;;;;4970606;28;20204;-65
2023/09/06 00:11:06;;;;;;;7.33;6.73;;;15.70;99.90;;;;;;4972227;28;20443;-65
2023/09/06 00:13:34;;;;;;;8.10;7.33;;;15.80;99.90;;;;;;4966582;28;20193;-65
2023/09/06 00:16:00;;;;;;;8.27;7.60;;;15.80;99.90;;;;;;4969271;28;20497;-65
2023/09/06 00:18:27;;;;;;;7.77;6.97;;;15.80;99.90;;;;;;4967541;28;21031;-65
2023/09/06 00:20:53;;;;;;;7.33;6.63;;;15.90;99.90;;;;;;4971019;28;20431;-65
2023/09/06 00:23:20;;;;;;;7.20;6.60;;;15.90;99.90;;;;;;4975352;28;20427;-65
2023/09/06 00:25:46;;;;;;;8.17;7.37;;;15.80;99.90;;;;;;4976790;28;20439;-65
2023/09/06 00:28:13;;;;;;;8.17;6.97;;;15.70;99.90;;;;;;4972804;28;20545;-65
2023/09/06 00:30:38;;;;;;;7.30;6.70;;;15.70;99.90;;;;;;4970147;28;20450;-65
2023/09/06 00:33:06;;;;;;;8.90;7.33;;;15.70;99.90;;;;;;4964336;28;20825;-65
2023/09/06 00:35:33;;;;;;;7.40;6.70;;;15.60;99.90;;;;;;4966559;28;20180;-65
2023/09/06 00:38:05;;;;;;;7.80;7.00;;;15.60;99.90;;;;;;4974362;28;20834;-65
2023/09/06 00:40:31;;;;;;;7.93;7.23;;;15.60;99.90;;;;;;4973370;28;20427;-65
2023/09/06 00:43:01;;;;;;;8.03;6.60;;;15.70;99.90;;;;;;4974501;28;20590;-65
2023/09/06 00:45:44;;;;;;;8.03;7.23;;;15.60;99.90;;;;;;4971063;28;20436;-65
2023/09/06 00:48:16;;;;;;;7.43;6.83;;;15.60;99.90;;;;;;4975131;28;20481;-65
2023/09/06 00:50:43;;;;;;;9.37;7.73;;;15.50;99.90;;;;;;4972631;28;20479;-65
2023/09/06 00:53:09;;;;;;;8.37;7.57;;;15.50;99.90;;;;;;4975466;28;20435;-65
2023/09/06 00:55:37;;;;;;;7.87;6.47;;;15.50;99.90;;;;;;4974414;28;20518;-65
2023/09/06 00:58:04;;;;;;;7.60;6.80;;;15.40;99.90;;;;;;4973314;28;20467;-65
2023/09/06 01:00:30;;;;;;;9.70;7.90;;;15.40;99.90;;;;;;4972703;28;20432;-65
2023/09/06 01:02:56;;;;;;;7.23;6.60;;;15.30;99.90;;;;;;4975240;28;20430;-65
2023/09/06 01:05:23;;;;;;;8.10;7.30;;;15.30;99.90;;;;;;4973044;28;20813;-65
2023/09/06 01:08:00;;;;;;;8.47;7.53;;;15.20;99.90;;;;;;4973195;28;20227;-65
2023/09/06 01:10:25;;;;;;;7.40;6.80;;;15.20;99.90;;;;;;4970425;28;20432;-65
2023/09/06 01:12:54;;;;;;;8.90;8.20;;;15.20;99.90;;;;;;4973603;28;21004;-65
2023/09/06 01:15:21;;;;;;;9.40;8.60;;;15.10;99.90;;;;;;4973548;28;20216;-65
2023/09/06 01:17:48;;;;;;;8.33;7.57;;;15.10;99.90;;;;;;4974589;28;20509;-65
2023/09/06 01:20:39;;;;;;;8.63;7.80;;;15.10;99.90;;;;;;4973105;28;20443;-65
2023/09/06 01:23:34;;;;;;;7.40;6.80;;;15.00;99.90;;;;;;4974511;28;20424;-65
2023/09/06 01:26:00;;;;;;;10.33;6.80;;;15.00;99.90;;;;;;4968624;28;20432;-66
2023/09/06 01:28:27;;;;;;;9.77;8.97;;;14.90;99.90;;;;;;4971940;28;20506;-65
2023/09/06 01:30:57;;;;;;;9.13;7.70;;;14.90;99.90;;;;;;4968031;28;20490;-65
2023/09/06 01:33:23;;;;;;;8.90;8.10;;;14.80;99.90;;;;;;4974159;28;21203;-65
2023/09/06 01:35:49;;;;;;;8.03;7.33;;;14.80;99.90;;;;;;4974859;28;20416;-65
2023/09/06 01:38:15;;;;;;;8.70;7.90;;;14.80;99.90;;;;;;4966430;28;20873;-65
2023/09/06 01:40:41;;;;;;;9.07;8.13;;;14.90;99.90;;;;;;4973032;28;20463;-65
2023/09/06 01:43:08;;;;;;;7.80;7.17;;;14.90;99.90;;;;;;4974686;28;20234;-65
2023/09/06 01:45:42;;;;;;;7.83;6.90;;;14.90;99.90;;;;;;4971346;28;20518;-65
2023/09/06 01:48:07;;;;;;;7.50;6.90;;;14.90;99.90;;;;;;4969028;28;20486;-66
2023/09/06 01:50:33;;;;;;;7.83;7.03;;;14.90;99.90;;;;;;4973053;28;20463;-65
2023/09/06 01:52:58;;;;;;;8.83;8.10;;;14.80;99.90;;;;;;4973257;28;20177;-65
2023/09/06 01:55:24;;;;;;;8.00;7.30;;;14.80;99.90;;;;;;4970336;28;20179;-65
2023/09/06 01:57:49;;;;;;;7.37;6.77;;;14.70;99.90;;;;;;4972348;28;20689;-65
2023/09/06 02:00:35;;;;;;;8.30;7.60;;;14.80;99.90;;;;;;4972971;28;20177;-65
2023/09/06 02:03:01;;;;;;;7.73;7.00;;;14.80;99.90;;;;;;4972274;28;20183;-65
2023/09/06 02:05:27;;;;;;;7.97;7.30;;;14.80;99.90;;;;;;4972580;28;20515;-65
2023/09/06 02:07:52;;;;;;;7.80;7.07;;;14.70;99.90;;;;;;4972785;28;20694;-65
2023/09/06 02:10:18;;;;;;;9.40;8.60;;;14.80;99.90;;;;;;4971474;28;20221;-65
2023/09/06 02:12:44;;;;;;;8.57;7.80;;;14.70;99.90;;;;;;4964419;28;20589;-65
2023/09/06 02:15:14;;;;;;;9.17;7.27;;;14.70;99.90;;;;;;4973392;28;20188;-65
2023/09/06 02:17:42;;;;;;;10.03;8.30;;;14.60;99.90;;;;;;4973774;28;20547;-65
2023/09/06 02:20:21;;;;;;;9.03;8.10;;;14.60;99.90;;;;;;4971256;28;20827;-65
2023/09/06 02:22:51;;;;;;;8.60;7.87;;;14.60;99.90;;;;;;4966422;28;20423;-65
2023/09/06 02:25:17;;;;;;;8.53;7.83;;;14.60;99.90;;;;;;4972835;28;20811;-65
2023/09/06 02:27:42;;;;;;;8.50;7.80;;;14.60;99.90;;;;;;4972514;28;20459;-65
2023/09/06 02:30:08;;;;;;;8.93;8.13;;;14.60;99.90;;;;;;4970373;28;20188;-65
2023/09/06 02:32:34;;;;;;;9.17;8.30;;;14.50;99.90;;;;;;4971923;28;20190;-65
2023/09/06 02:35:01;;;;;;;9.57;7.70;;;14.50;99.90;;;;;;4972873;28;20439;-65
2023/09/06 02:37:26;;;;;;;8.40;7.67;;;14.50;99.90;;;;;;4971849;28;20630;-65
2023/09/06 02:39:55;;;;;;;8.57;7.77;;;14.50;99.90;;;;;;4970842;28;20435;-65
2023/09/06 02:42:21;;;;;;;7.93;7.10;;;14.60;99.90;;;;;;4972601;28;20175;-65
2023/09/06 02:44:47;;;;;;;7.70;7.00;;;14.60;99.90;;;;;;4970131;28;20858;-65
2023/09/06 02:47:15;;;;;;;8.17;7.20;;;14.50;99.90;;;;;;4967301;28;20428;-65
2023/09/06 02:49:43;;;;;;;9.37;7.40;;;14.50;99.90;;;;;;4971446;28;20272;-65
2023/09/06 02:52:28;;;;;;;7.20;6.50;;;14.50;99.90;;;;;;4972849;28;20458;-65
2023/09/06 02:54:57;;;;;;;7.13;6.53;;;14.50;99.90;;;;;;4964847;28;20561;-65
2023/09/06 02:57:24;;;;;;;7.47;6.40;;;14.40;99.90;;;;;;4971430;28;20495;-65
2023/09/06 02:59:51;;;;;;;8.13;7.40;;;14.40;99.90;;;;;;4970763;28;20478;-65
2023/09/06 03:02:21;;;;;;;8.00;7.30;;;14.40;99.90;;;;;;4970086;28;20993;-65
2023/09/06 03:04:48;;;;;;;7.03;6.43;;;14.30;99.90;;;;;;4963593;28;20518;-65
2023/09/06 03:07:15;;;;;;;8.83;8.03;;;14.30;99.90;;;;;;4969398;28;20938;-65
2023/09/06 03:09:42;;;;;;;8.53;7.73;;;14.20;99.90;;;;;;4968386;28;20862;-65
2023/09/06 03:12:14;;;;;;;8.77;8.07;;;14.20;99.90;;;;;;4972682;28;20440;-65
2023/09/06 03:14:48;;;;;;;8.57;7.87;;;14.10;99.90;;;;;;4971046;28;20534;-65
2023/09/06 03:17:22;;;;;;;8.80;7.90;;;14.10;99.90;;;;;;4970710;28;20953;-65
2023/09/06 03:19:53;;;;;;;8.57;6.80;;;14.00;99.90;;;;;;4968011;28;20876;-65
2023/09/06 03:22:21;;;;;;;7.10;6.50;;;14.10;99.90;;;;;;4969936;28;20432;-65
2023/09/06 03:24:48;;;;;;;9.33;7.73;;;14.10;99.90;;;;;;4972213;28;20829;-65
2023/09/06 03:27:16;;;;;;;8.27;7.47;;;14.10;99.90;;;;;;4972071;28;20442;-65
2023/09/06 03:29:43;;;;;;;8.37;7.57;;;14.10;99.90;;;;;;4968001;28;20511;-65
2023/09/06 03:32:09;;;;;;;9.80;8.77;;;14.10;99.90;;;;;;4971824;28;20490;-65
2023/09/06 03:34:41;;;;;;;7.47;6.77;;;14.00;99.90;;;;;;4974389;28;21045;-65
2023/09/06 03:37:08;;;;;;;11.33;7.83;;;14.00;99.90;;;;;;4992440;28;20203;-65
2023/09/06 03:39:41;;;;;;;7.80;7.20;;;13.90;99.90;;;;;;4969583;28;20452;-65
2023/09/06 03:42:08;;;;;;;9.50;7.80;;;13.90;99.90;;;;;;4953701;28;20549;-65
2023/09/06 03:44:37;;;;;;;9.37;8.37;;;13.90;99.90;;;;;;4967396;28;20443;-65
2023/09/06 03:47:05;;;;;;;7.87;7.23;;;13.90;99.90;;;;;;4968595;28;21019;-65
2023/09/06 03:49:32;;;;;;;8.57;7.77;;;13.80;99.90;;;;;;4968776;28;20821;-65
2023/09/06 03:51:58;;;;;;;7.60;6.90;;;13.80;99.90;;;;;;4970786;28;20798;-65
2023/09/06 03:54:24;;;;;;;8.53;7.80;;;13.80;99.90;;;;;;4970986;28;20526;-65
2023/09/06 03:56:50;;;;;;;9.80;8.37;;;13.80;99.90;;;;;;4975431;28;20558;-65
2023/09/06 03:59:16;;;;;;;11.43;8.40;;;13.70;99.90;;;;;;4973488;28;21332;-65
2023/09/06 04:01:43;;;;;;;8.27;7.57;;;13.70;99.90;;;;;;4974922;28;20431;-65
2023/09/06 04:04:09;;;;;;;9.80;8.90;;;13.70;99.90;;;;;;4973646;28;20844;-65
2023/09/06 04:06:35;;;;;;;9.23;8.43;;;13.70;99.90;;;;;;4974723;28;20566;-65
2023/09/06 04:09:01;;;;;;;9.10;8.20;;;13.70;99.90;;;;;;4974748;28;20463;-65
2023/09/06 04:11:26;;;;;;;9.10;8.20;;;13.80;99.90;;;;;;4974623;28;20239;-65
2023/09/06 04:13:52;;;;;;;11.47;10.47;;;13.70;99.90;;;;;;4974800;28;20173;-65
2023/09/06 04:16:18;;;;;;;10.30;8.17;;;13.60;99.90;;;;;;4970035;28;20160;-65
2023/09/06 04:18:43;;;;;;;9.13;8.33;;;13.60;99.90;;;;;;4975194;28;20839;-65
2023/09/06 04:21:10;;;;;;;8.87;7.97;;;13.50;99.90;;;;;;4974186;28;20197;-65
2023/09/06 04:23:39;;;;;;;9.43;7.50;;;13.50;99.90;;;;;;4969832;28;20601;-65
2023/09/06 04:26:05;;;;;;;12.00;9.13;;;13.50;99.90;;;;;;4977060;28;20486;-65
2023/09/06 04:28:30;;;;;;;12.70;9.40;;;13.40;99.90;;;;;;4974609;28;20867;-65
2023/09/06 04:30:57;;;;;;;9.90;8.90;;;13.40;99.90;;;;;;4974239;28;20188;-65
2023/09/06 04:33:24;;;;;;;10.13;7.70;;;13.50;99.90;;;;;;4974365;28;20555;-65
2023/09/06 04:35:50;;;;;;;9.57;8.50;;;13.40;99.90;;;;;;4975630;28;20471;-65
2023/09/06 04:38:20;;;;;;;9.70;8.67;;;13.40;99.90;;;;;;4970550;28;20571;-64
2023/09/06 04:40:46;;;;;;;9.57;8.60;;;13.40;99.90;;;;;;4969592;28;20990;-64
2023/09/06 04:43:14;;;;;;;10.20;8.90;;;13.40;99.90;;;;;;4975528;28;20435;-64
2023/09/06 04:45:39;;;;;;;9.03;8.23;;;13.40;99.90;;;;;;4974929;28;20457;-64
2023/09/06 04:48:08;;;;;;;9.63;8.63;;;13.40;99.90;;;;;;4976025;28;20459;-64
2023/09/06 04:50:40;;;;;;;9.20;7.40;;;13.30;99.90;;;;;;4973575;28;20272;-64
2023/09/06 04:53:11;;;;;;;9.83;8.17;;;13.40;99.90;;;;;;4971135;28;20457;-64
2023/09/06 04:55:38;;;;;;;9.00;8.10;;;13.40;99.90;;;;;;4971684;28;20440;-64
2023/09/06 04:58:04;;;;;;;8.80;8.00;;;13.40;99.90;;;;;;4975646;28;20690;-64
2023/09/06 05:00:35;;;;;;;8.80;7.90;;;13.40;99.90;;;;;;4969990;28;20436;-64
2023/09/06 05:03:00;;;;;;;8.70;7.90;;;13.40;99.90;;;;;;4973701;28;20436;-64
2023/09/06 05:05:27;;;;;;;9.87;7.93;;;13.40;99.90;;;;;;4972813;28;20440;-64
2023/09/06 05:07:53;;;;;;;8.53;7.73;;;13.50;99.90;;;;;;4964766;28;20253;-64
2023/09/06 05:10:18;;;;;;;8.67;7.97;;;13.40;99.90;;;;;;4973849;28;20487;-64
2023/09/06 05:12:45;;;;;;;10.37;9.37;;;13.50;99.90;;;;;;4973477;28;20789;-63
2023/09/06 05:15:12;;;;;;;11.37;9.50;;;13.50;99.90;;;;;;4972751;28;20180;-63
2023/09/06 05:17:39;;;;;;;8.13;7.37;;;13.60;99.90;;;;;;4977201;28;20494;-63
2023/09/06 05:20:25;;;;;;;11.00;8.40;;;13.70;99.90;;;;;;4974059;28;20451;-63
2023/09/06 05:22:51;;;;;;;8.90;8.00;;;13.90;99.90;;;;;;4969440;28;20502;-63
2023/09/06 05:25:16;;;;;;;9.43;8.50;;;14.10;99.90;;;;;;4974033;28;20451;-64
2023/09/06 05:27:42;;;;;;;8.73;7.97;;;14.30;99.90;;;;;;4971819;28;20208;-64
2023/09/06 05:30:08;;;;;;;10.13;8.40;;;14.40;99.90;;;;;;4974124;28;20172;-64
2023/09/06 05:32:33;;;;;;;10.60;9.60;;;14.60;99.90;;;;;;4973643;28;20582;-64
2023/09/06 05:34:59;;;;;;;10.60;8.80;;;14.70;99.90;;;;;;4973350;28;20187;-64
2023/09/06 05:37:25;;;;;;;16.10;10.10;;;14.90;99.90;;;;;;4972148;28;20258;-64
2023/09/06 05:39:51;;;;;;;9.47;8.57;;;15.00;99.90;;;;;;4965385;28;20647;-64
2023/09/06 05:42:16;;;;;;;8.23;7.53;;;15.20;99.90;;;;;;4973363;28;20498;-64
2023/09/06 05:44:42;;;;;;;8.77;7.97;;;15.40;99.90;;;;;;4973123;28;20180;-64
2023/09/06 05:47:08;;;;;;;9.40;8.30;;;15.60;99.90;;;;;;4974999;28;20443;-64
2023/09/06 05:49:35;;;;;;;9.20;7.93;;;16.10;99.90;;;;;;4973843;28;21020;-64
2023/09/06 05:52:02;;;;;;;11.93;8.20;;;16.20;99.90;;;;;;4973943;28;20184;-64
2023/09/06 05:54:27;;;;;;;9.97;8.20;;;16.20;99.90;;;;;;4974406;28;20431;-64
2023/09/06 05:56:53;;;;;;;9.23;8.37;;;16.30;99.90;;;;;;4973031;28;20526;-63
2023/09/06 05:59:19;;;;;;;8.27;7.47;;;16.40;99.90;;;;;;4972581;28;20279;-65
2023/09/06 06:01:45;;;;;;;9.30;8.40;;;16.50;99.90;;;;;;4974290;28;20223;-64
2023/09/06 06:04:11;;;;;;;9.73;8.73;;;16.50;99.90;;;;;;4974297;28;20435;-64
2023/09/06 06:06:37;;;;;;;10.53;8.67;;;16.60;99.90;;;;;;4973217;28;20438;-64
2023/09/06 06:09:04;;;;;;;11.47;9.27;;;16.80;99.90;;;;;;4973415;28;20464;-64
2023/09/06 06:11:29;;;;;;;10.30;9.30;;;16.90;99.90;;;;;;4974091;28;20510;-64
2023/09/06 06:13:55;;;;;;;9.53;8.73;;;17.00;99.90;;;;;;4974072;28;20554;-63
2023/09/06 06:16:21;;;;;;;10.60;9.50;;;17.10;99.90;;;;;;4965590;28;20176;-65
2023/09/06 06:18:48;;;;;;;12.27;8.50;;;17.30;99.90;;;;;;4963712;28;20212;-64
2023/09/06 06:21:13;;;;;;;8.47;7.53;;;17.50;99.90;;;;;;4969307;28;20184;-64
2023/09/06 06:23:43;;;;;;;12.73;8.87;;;17.60;99.90;;;;;;4965913;28;20463;-63
2023/09/06 06:26:09;;;;;;;11.20;8.83;;;17.80;99.90;;;;;;4971049;28;20315;-64
2023/09/06 06:28:34;;;;;;;9.60;8.67;;;18.00;99.90;;;;;;4972948;28;20538;-64
2023/09/06 06:31:00;;;;;;;9.07;8.00;;;18.20;99.90;;;;;;4970216;28;20172;-64
2023/09/06 06:33:26;;;;;;;8.70;7.90;;;18.40;99.90;;;;;;4990724;28;20190;-63
2023/09/06 06:35:51;;;;;;;9.47;8.47;;;18.60;99.90;;;;;;4976951;28;20194;-63
2023/09/06 06:38:17;;;;;;;11.13;8.53;;;18.70;99.90;;;;;;4970451;28;20574;-64
2023/09/06 06:40:42;;;;;;;8.80;7.93;;;18.90;99.90;;;;;;4973518;28;20239;-66
2023/09/06 06:43:08;;;;;;;8.93;8.13;;;19.20;99.90;;;;;;4961960;28;20168;-65
2023/09/06 06:45:33;;;;;;;9.60;8.73;;;19.50;99.90;;;;;;4971071;28;20164;-65
2023/09/06 06:47:59;;;;;;;15.13;8.80;;;19.70;99.90;;;;;;4973065;28;20562;-65
2023/09/06 06:50:24;;;;;;;9.07;8.27;;;20.00;99.90;;;;;;4972978;28;20626;-66
2023/09/06 06:52:50;;;;;;;8.93;8.03;;;20.20;99.90;;;;;;4972285;28;20180;-65
2023/09/06 06:55:15;;;;;;;9.77;8.70;;;20.40;99.90;;;;;;4972282;28;20187;-66
2023/09/06 06:57:42;;;;;;;8.97;8.07;;;20.40;99.90;;;;;;4973015;28;20208;-66
2023/09/06 07:00:11;;;;;;;9.43;8.73;;;20.70;99.90;;;;;;4972815;28;20207;-65
2023/09/06 07:02:37;;;;;;;9.37;8.50;;;20.90;99.90;;;;;;4970688;28;20465;-65
2023/09/06 07:05:03;;;;;;;8.83;8.07;;;20.70;99.90;;;;;;4973438;28;20420;-66
2023/09/06 07:07:28;;;;;;;9.33;8.53;;;20.60;99.90;;;;;;4973343;28;20791;-65
2023/09/06 07:09:54;;;;;;;10.57;9.57;;;20.30;99.90;;;;;;4972637;28;20275;-66
2023/09/06 07:12:19;;;;;;;11.63;8.40;;;20.10;99.90;;;;;;4973201;28;20270;-66
2023/09/06 07:14:45;;;;;;;8.40;7.60;;;20.10;99.90;;;;;;4973316;28;20913;-66
2023/09/06 07:17:10;;;;;;;9.30;8.50;;;20.30;99.90;;;;;;4972016;28;20200;-66
2023/09/06 07:19:36;;;;;;;10.30;8.10;;;20.50;99.90;;;;;;4972332;28;20247;-65
2023/09/06 07:22:03;;;;;;;9.03;8.20;;;20.50;99.90;;;;;;4973267;28;20263;-65
2023/09/06 07:24:28;;;;;;;8.97;8.07;;;20.70;99.90;;;;;;4973185;28;20239;-66
2023/09/06 07:26:54;;;;;;;9.33;8.53;;;20.80;99.90;;;;;;4973159;28;20806;-66
2023/09/06 07:29:19;;;;;;;8.30;7.53;;;21.20;99.90;;;;;;4972431;28;20200;-66
2023/09/06 07:31:46;;;;;;;9.60;8.80;;;21.60;99.90;;;;;;4977113;28;20288;-66
2023/09/06 07:34:12;;;;;;;9.27;8.37;;;22.30;99.90;;;;;;4976144;28;20184;-66
2023/09/06 07:36:37;;;;;;;9.37;8.53;;;22.10;99.90;;;;;;4976860;28;20493;-66
2023/09/06 07:39:03;;;;;;;9.30;8.43;;;21.80;99.90;;;;;;4976254;28;20188;-66
2023/09/06 07:41:29;;;;;;;8.53;7.93;;;21.90;99.90;;;;;;4976793;28;20634;-66
2023/09/06 07:43:55;;;;;;;8.40;7.70;;;22.00;99.90;;;;;;4976870;28;20507;-66
2023/09/06 07:46:24;;;;;;;13.43;8.27;;;22.20;99.90;;;;;;4976891;28;20207;-66
2023/09/06 07:48:49;;;;;;;8.10;7.37;;;22.50;99.90;;;;;;4973764;28;20926;-66
2023/09/06 07:51:15;;;;;;;8.77;8.07;;;22.90;99.90;;;;;;4976721;28;20428;-66
2023/09/06 07:53:41;;;;;;;8.30;7.50;;;22.90;99.90;;;;;;4977011;28;20827;-66
2023/09/06 07:56:07;;;;;;;7.90;7.30;;;22.70;99.90;;;;;;4976639;28;20199;-66
2023/09/06 07:58:33;;;;;;;8.50;7.77;;;22.90;99.90;;;;;;4975824;28;20494;-66
2023/09/06 08:00:59;;;;;;;8.43;7.53;;;23.50;99.90;;;;;;4976724;28;20175;-66
2023/09/06 08:03:26;;;;;;;8.90;8.00;;;23.80;99.90;;;;;;4975815;28;20177;-66
2023/09/06 08:05:52;;;;;;;10.80;7.93;;;24.50;99.90;;;;;;4976476;28;20176;-66
2023/09/06 08:08:17;;;;;;;8.10;7.30;;;24.90;99.90;;;;;;4975676;28;20904;-66
2023/09/06 08:10:43;;;;;;;8.73;7.93;;;25.20;99.90;;;;;;4976266;28;20503;-66
2023/09/06 08:13:09;;;;;;;7.77;7.07;;;25.40;99.90;;;;;;4976439;28;20626;-66
2023/09/06 08:15:35;;;;;;;8.20;7.23;;;25.70;99.90;;;;;;4975296;28;20184;-66
2023/09/06 08:18:03;;;;;;;8.93;8.00;;;25.90;99.90;;;;;;4976000;28;20753;-66
2023/09/06 08:20:29;;;;;;;6.93;6.43;;;26.20;99.60;;;;;;4974412;28;20523;-66
2023/09/06 08:22:54;;;;;;;7.43;6.73;;;26.30;98.30;;;;;;4976093;28;20948;-66
2023/09/06 08:25:21;;;;;;;7.87;7.10;;;26.30;98.10;;;;;;4976288;28;20514;-66
2023/09/06 08:27:49;;;;;;;11.43;8.80;;;26.30;97.60;;;;;;4976208;28;20223;-66
2023/09/06 08:30:15;;;;;;;7.53;6.83;;;26.30;97.10;;;;;;4975475;28;20421;-66
2023/09/06 08:32:42;;;;;;;7.70;7.00;;;26.00;98.00;;;;;;4975760;28;20424;-66
2023/09/06 08:35:09;;;;;;;7.10;6.40;;;26.30;97.80;;;;;;4974921;28;20451;-66
2023/09/06 08:37:35;;;;;;;8.43;7.13;;;26.70;96.60;;;;;;4975492;28;21047;-66
2023/09/06 08:40:07;;;;;;;6.50;5.90;;;27.00;95.60;;;;;;4975293;28;20434;-66
2023/09/06 08:42:34;;;;;;;7.53;6.83;;;27.20;94.20;;;;;;4974702;28;20420;-66
2023/09/06 08:45:05;;;;;;;11.33;7.33;;;27.50;92.70;;;;;;4975868;28;20798;-66
2023/09/06 08:47:32;;;;;;;10.10;7.87;;;27.30;93.20;;;;;;4975843;28;20456;-66
2023/09/06 08:49:58;;;;;;;8.10;6.50;;;26.50;93.80;;;;;;4975153;28;20522;-66
2023/09/06 08:52:24;;;;;;;7.10;6.60;;;26.50;94.60;;;;;;4973877;28;20454;-66
2023/09/06 08:54:50;;;;;;;10.43;7.50;;;26.30;95.00;;;;;;4975710;28;20432;-66
2023/09/06 08:57:17;;;;;;;7.67;7.03;;;26.90;94.80;;;;;;4975549;28;20458;-66
2023/09/06 08:59:43;;;;;;;6.50;6.00;;;27.90;91.70;;;;;;4974962;28;20745;-66
2023/09/06 09:02:15;;;;;;;7.60;6.90;;;28.70;89.70;;;;;;4975608;28;20460;-66
2023/09/06 09:04:42;;;;;;;7.30;6.70;;;29.50;87.00;;;;;;4974508;28;20180;-66
2023/09/06 09:07:09;;;;;;;6.53;6.07;;;30.50;81.00;;;;;;4975377;28;20793;-66
2023/09/06 09:09:58;;;;;;;7.30;6.60;;;30.70;78.50;;;;;;4974606;28;20997;-66
2023/09/06 09:12:25;;;;;;;8.17;6.63;;;31.30;74.30;;;;;;4975513;28;20424;-66
2023/09/06 09:14:52;;;;;;;7.20;6.60;;;31.80;72.50;;;;;;4975425;28;20917;-67
2023/09/06 09:17:20;;;;;;;8.10;7.10;;;30.30;72.70;;;;;;4974254;28;20455;-66
2023/09/06 09:19:53;;;;;;;6.93;6.30;;;30.40;74.00;;;;;;4966659;28;20452;-66
2023/09/06 09:22:37;;;;;;;6.83;6.30;;;31.90;69.40;;;;;;4973936;28;20432;-67
2023/09/06 09:25:10;;;;;;;8.63;7.53;;;32.80;64.90;;;;;;4955852;28;20431;-66
2023/09/06 09:27:37;;;;;;;7.30;6.70;;;33.40;62.70;;;;;;4955696;28;20441;-65
2023/09/06 09:30:04;;;;;;;6.20;5.60;;;33.50;61.60;;;;;;4955225;28;20515;-65
2023/09/06 09:32:30;;;;;;;7.17;6.47;;;34.30;59.30;;;;;;4955617;28;20420;-65
2023/09/06 09:34:56;;;;;;;7.87;7.27;;;34.90;57.40;;;;;;4961973;28;20442;-65
2023/09/06 09:37:22;;;;;;;9.77;7.10;;;35.10;57.80;;;;;;4974650;28;20196;-65
2023/09/06 09:39:48;;;;;;;9.13;7.37;;;35.00;57.20;;;;;;4974111;28;20240;-65
2023/09/06 09:42:14;;;;;;;8.63;6.50;;;34.70;55.80;;;;;;4974695;28;20428;-64
2023/09/06 09:44:40;;;;;;;7.33;6.53;;;34.60;56.00;;;;;;4974755;28;20164;-65
2023/09/06 09:47:14;;;;;;;7.00;6.40;;;34.70;55.60;;;;;;4974651;28;20441;-65
2023/09/06 09:49:41;;;;;;;6.13;5.73;;;35.10;54.30;;;;;;4974057;28;20423;-65
2023/09/06 09:52:14;;;;;;;10.80;6.23;;;35.50;53.20;;;;;;4973359;28;20458;-65
2023/09/06 09:54:45;;;;;;;6.70;6.10;;;35.70;53.00;;;;;;4974326;28;20787;-65
2023/09/06 09:57:12;;;;;;;7.27;6.57;;;33.60;54.80;;;;;;4974508;28;20482;-65
2023/09/06 09:59:38;;;;;;;6.47;5.90;;;35.00;54.50;;;;;;4972975;28;20446;-64
2023/09/06 10:02:05;;;;;;;6.40;5.90;;;34.90;53.50;;;;;;4974228;28;20435;-65
2023/09/06 10:04:36;;;;;;;9.27;6.10;;;34.50;54.40;;;;;;4974355;28;20516;-65
2023/09/06 10:07:04;;;;;;;9.57;6.60;;;35.50;53.70;;;;;;4973602;28;20450;-65
2023/09/06 10:09:31;;;;;;;6.63;6.13;;;36.70;53.70;;;;;;4973163;28;20459;-65
2023/09/06 10:11:59;;;;;;;6.13;5.73;;;37.60;52.90;;;;;;4974144;28;20435;-65
2023/09/06 10:14:26;;;;;;;6.23;5.30;;;38.90;52.20;;;;;;4974214;28;20424;-65
2023/09/06 10:16:52;;;;;;;6.30;5.90;;;39.10;51.00;;;;;;4974040;28;20424;-65
2023/09/06 10:19:22;;;;;;;6.57;5.90;;;39.20;50.10;;;;;;4973287;28;20471;-65
2023/09/06 10:21:48;;;;;;;7.03;6.43;;;39.60;50.60;;;;;;4972124;28;20436;-65
2023/09/06 10:24:18;;;;;;;6.90;6.40;;;38.60;49.90;;;;;;4973926;28;20502;-65
2023/09/06 10:26:46;;;;;;;6.90;6.43;;;38.30;49.70;;;;;;4973939;28;20932;-65
2023/09/06 10:29:23;;;;;;;10.40;5.63;;;38.00;49.10;;;;;;4973129;28;20450;-65
2023/09/06 10:31:51;;;;;;;6.40;5.90;;;38.50;49.30;;;;;;4973918;28;20415;-65
2023/09/06 10:34:20;;;;;;;5.63;5.13;;;39.20;47.80;;;;;;4973747;28;20432;-65
2023/09/06 10:36:53;;;;;;;5.80;5.40;;;38.60;47.60;;;;;;4971846;28;20452;-65
2023/09/06 10:39:25;;;;;;;5.93;5.63;;;37.80;48.00;;;;;;4972908;28;20447;-65
2023/09/06 10:42:09;;;;;;;5.93;5.53;;;38.00;47.80;;;;;;4954431;28;20420;-65
2023/09/06 10:44:53;;;;;;;6.93;6.37;;;38.30;47.50;;;;;;4954406;29;20428;-65
2023/09/06 10:47:45;;;;;;;6.37;5.97;;;37.90;47.60;;;;;;4954273;29;20416;-65
2023/09/06 10:50:16;;;;;;;6.20;5.63;;;38.30;47.70;;;;;;4951563;29;20429;-65
2023/09/06 10:52:51;;;;;;;6.27;5.87;;;37.50;47.60;;;;;;4962869;28;20486;-65
2023/09/06 10:55:23;;;;;;;6.90;6.30;;;38.50;47.50;;;;;;4968887;28;20435;-65
2023/09/06 10:57:51;;;;;;;6.37;5.97;;;36.40;48.30;;;;;;4965895;28;20463;-65
2023/09/06 11:00:21;;;;;;;6.23;5.83;;;36.70;50.10;;;;;;4972858;28;20511;-65
2023/09/06 11:03:13;;;;;;;7.63;7.13;;;37.90;48.10;;;;;;4973508;28;20412;-65
2023/09/06 11:05:42;;;;;;;8.40;6.03;;;39.00;46.60;;;;;;4965901;28;20438;-65
2023/09/06 11:08:09;;;;;;;6.90;6.27;;;39.40;46.40;;;;;;4972052;28;20455;-65
2023/09/06 11:10:36;;;;;;;6.77;6.37;;;39.00;46.40;;;;;;4972949;28;20933;-65
2023/09/06 11:13:10;;;;;;;6.83;6.30;;;39.30;45.90;;;;;;4973292;28;20503;-65
2023/09/06 11:15:36;;;;;;;7.00;6.40;;;39.60;45.50;;;;;;4973301;28;20460;-65
2023/09/06 11:18:03;;;;;;;7.03;6.50;;;40.90;48.00;;;;;;4972855;28;20471;-65
2023/09/06 11:20:30;;;;;;;5.90;5.23;;;41.40;46.40;;;;;;4973185;28;20961;-65
2023/09/06 11:22:58;;;;;;;6.30;5.80;;;41.50;45.60;;;;;;4973380;28;20420;-65
2023/09/06 11:25:25;;;;;;;6.30;5.80;;;41.30;45.60;;;;;;4972689;28;20440;-65
2023/09/06 11:27:51;;;;;;;6.50;6.00;;;42.30;45.20;;;;;;4973112;28;21024;-65
2023/09/06 11:30:21;;;;;;;6.23;5.73;;;42.50;44.80;;;;;;4972804;28;20913;-65
2023/09/06 11:32:51;;;;;;;6.73;6.33;;;43.50;44.60;;;;;;4973094;28;20940;-65
2023/09/06 11:35:20;;;;;;;6.80;6.17;;;43.70;44.50;;;;;;4973093;28;20423;-65
2023/09/06 11:37:50;;;;;;;6.20;5.70;;;43.40;43.20;;;;;;4973287;28;20471;-65
2023/09/06 11:40:19;;;;;;;7.27;6.67;;;43.60;42.10;;;;;;4972584;28;20463;-65
2023/09/06 11:42:52;;;;;;;6.60;6.20;;;44.10;41.80;;;;;;4971871;28;20526;-65
2023/09/06 11:45:20;;;;;;;6.77;6.13;;;45.30;40.60;;;;;;4973070;28;20853;-65
2023/09/06 11:47:46;;;;;;;5.77;5.37;;;44.90;39.50;;;;;;4971106;28;20965;-65
2023/09/06 11:50:15;;;;;;;6.50;5.90;;;44.30;39.30;;;;;;4972386;28;20412;-65
2023/09/06 11:52:48;;;;;;;6.33;5.97;;;45.00;38.70;;;;;;4973295;28;20833;-65
2023/09/06 11:55:18;;;;;;;6.00;5.60;;;45.20;37.50;;;;;;4973071;28;21121;-65
2023/09/06 11:57:51;;;;;;;6.70;6.20;;;44.80;37.50;;;;;;4972753;28;20927;-65
2023/09/06 12:00:28;;;;;;;6.97;6.33;;;44.20;37.50;;;;;;4972420;28;20471;-65
2023/09/06 12:03:01;;;;;;;7.60;6.13;;;43.80;37.30;;;;;;4966014;28;20435;-65
2023/09/06 12:05:27;;;;;;;6.33;5.83;;;43.50;37.90;;;;;;4972719;28;20424;-65
2023/09/06 12:07:56;;;;;;;6.47;6.00;;;44.30;37.40;;;;;;4972979;28;20452;-65
2023/09/06 12:10:23;;;;;;;6.17;5.63;;;44.60;37.00;;;;;;4972238;28;20427;-65
2023/09/06 12:12:51;;;;;;;5.97;5.57;;;44.90;36.50;;;;;;4972814;28;20540;-65
2023/09/06 12:15:20;;;;;;;6.63;6.13;;;44.90;36.50;;;;;;4972779;28;20789;-65
2023/09/06 12:17:49;;;;;;;6.30;5.90;;;45.50;35.70;;;;;;4971687;28;20533;-65
2023/09/06 12:20:23;;;;;;;6.67;6.27;;;45.70;36.70;;;;;;4975588;28;20426;-65
2023/09/06 12:22:50;;;;;;;5.57;5.17;;;46.80;37.40;;;;;;4976410;28;20431;-65
2023/09/06 12:25:16;;;;;;;7.13;6.57;;;46.20;36.50;;;;;;4976181;28;20781;-65
2023/09/06 12:27:42;;;;;;;6.73;6.23;;;46.00;36.80;;;;;;4976191;28;20446;-65
2023/09/06 12:30:09;;;;;;;6.47;5.97;;;46.80;36.40;;;;;;4975617;28;20446;-65
2023/09/06 12:32:39;;;;;;;6.73;6.23;;;46.30;36.10;;;;;;4976333;28;20444;-65
2023/09/06 12:35:09;;;;;;;6.90;6.30;;;45.70;36.30;;;;;;4974836;28;20527;-65
2023/09/06 12:37:39;;;;;;;6.10;5.53;;;45.00;36.30;;;;;;4975834;28;20517;-65
2023/09/06 12:40:10;;;;;;;7.13;5.70;;;45.90;36.30;;;;;;4975485;28;20503;-65
2023/09/06 12:42:37;;;;;;;7.00;6.43;;;45.90;35.60;;;;;;4976395;28;20408;-65
2023/09/06 12:45:03;;;;;;;6.47;6.07;;;46.10;35.60;;;;;;4976260;28;20424;-65
2023/09/06 12:47:29;;;;;;;6.40;6.00;;;47.10;35.30;;;;;;4975786;28;20424;-65
2023/09/06 12:49:55;;;;;;;5.63;5.30;;;46.60;34.50;;;;;;4975475;28;20430;-65